createdAt,value
2016-10-31T00:00:59.311Z,11.03
2016-10-31T00:01:59.449Z,11.1
2016-10-31T00:02:59.421Z,11.15
2016-10-31T00:03:59.547Z,11.13
2016-10-31T00:04:59.569Z,11.1
2016-10-31T00:05:59.379Z,11.09
2016-10-31T00:06:59.576Z,11.15
2016-10-31T00:07:59.567Z,11.09
2016-10-31T00:08:59.555Z,11.18
2016-10-31T00:09:59.436Z,11.12
2016-10-31T00:10:59.478Z,11.09
2016-10-31T00:11:59.429Z,11.21
2016-10-31T00:12:59.597Z,11.23
2016-10-31T00:13:59.354Z,11.18
2016-10-31T00:14:59.509Z,11.23
2016-10-31T00:15:59.480Z,11.09
2016-10-31T00:16:59.497Z,11.18
2016-10-31T00:17:59.732Z,11.18
2016-10-31T00:18:59.363Z,11.24
2016-10-31T00:19:59.497Z,11.26
2016-10-31T00:20:59.601Z,11.12
2016-10-31T00:21:59.449Z,11.09
2016-10-31T00:22:59.500Z,11.26
2016-10-31T00:23:59.477Z,11.23
2016-10-31T00:24:59.327Z,11.18
2016-10-31T00:25:59.608Z,11.21
2016-10-31T00:26:59.617Z,11.16
2016-10-31T00:27:59.491Z,11.18
2016-10-31T00:28:59.653Z,11.21
2016-10-31T00:29:59.424Z,11.09
2016-10-31T00:30:59.509Z,11.2
2016-10-31T00:31:59.629Z,11.15
2016-10-31T00:32:59.534Z,11.15
2016-10-31T00:33:59.781Z,11.1
2016-10-31T00:34:59.669Z,11.15
2016-10-31T00:35:59.490Z,11.05
2016-10-31T00:36:59.633Z,11.12
2016-10-31T00:37:59.530Z,11.21
2016-10-31T00:38:59.408Z,11.16
2016-10-31T00:39:59.658Z,11.06
2016-10-31T00:40:59.557Z,11.08
2016-10-31T00:41:59.419Z,11.09
2016-10-31T00:42:59.545Z,11.09
2016-10-31T00:43:59.534Z,11.08
2016-10-31T00:44:59.425Z,11.09
2016-10-31T00:45:59.536Z,11.1
2016-10-31T00:46:59.675Z,11.05
2016-10-31T00:47:59.561Z,11.18
2016-10-31T00:48:59.676Z,11.2
2016-10-31T00:49:59.552Z,11.16
2016-10-31T00:50:59.698Z,11.24
2016-10-31T00:51:59.694Z,10.9
2016-10-31T00:52:59.486Z,11.21
2016-10-31T00:53:59.546Z,11.26
2016-10-31T00:54:59.591Z,11.21
2016-10-31T00:55:59.696Z,11.08
2016-10-31T00:56:59.562Z,11.1
2016-10-31T00:57:59.695Z,11.18
2016-10-31T00:58:59.563Z,11.1
2016-10-31T00:59:59.561Z,11.2
2016-10-31T01:00:59.490Z,11.21
2016-10-31T01:01:59.600Z,11.18
2016-10-31T01:02:59.720Z,11.2
2016-10-31T01:03:59.519Z,11.23
2016-10-31T01:04:59.634Z,11.18
2016-10-31T01:05:59.639Z,11.26
2016-10-31T01:06:59.455Z,11.13
2016-10-31T01:07:59.625Z,11.21
2016-10-31T01:08:59.521Z,11.23
2016-10-31T01:09:59.630Z,11.18
2016-10-31T01:10:59.738Z,11.23
2016-10-31T01:11:59.626Z,11.23
2016-10-31T01:12:59.741Z,11.2
2016-10-31T01:13:59.741Z,11.18
2016-10-31T01:14:59.509Z,11.21
2016-10-31T01:15:59.516Z,11.26
2016-10-31T01:16:59.622Z,11.27
2016-10-31T01:17:59.637Z,11.18
2016-10-31T01:18:59.521Z,11.16
2016-10-31T01:19:59.758Z,11.23
2016-10-31T01:20:59.527Z,11.21
2016-10-31T01:22:00.084Z,11.13
2016-10-31T01:22:59.772Z,11.12
2016-10-31T01:23:59.549Z,11.24
2016-10-31T01:24:59.636Z,11.15
2016-10-31T01:25:59.627Z,11.1
2016-10-31T01:26:59.798Z,11.26
2016-10-31T01:27:59.778Z,11.12
2016-10-31T01:28:59.797Z,11.2
2016-10-31T01:29:59.690Z,11.15
2016-10-31T01:30:59.791Z,11.16
2016-10-31T01:31:59.594Z,11.2
2016-10-31T01:32:59.580Z,11.13
2016-10-31T01:33:59.810Z,11.12
2016-10-31T01:34:59.645Z,11.23
2016-10-31T01:35:59.669Z,11.09
2016-10-31T01:36:59.800Z,11.13
2016-10-31T01:37:59.947Z,11.2
2016-10-31T01:38:59.704Z,11.18
2016-10-31T01:39:59.677Z,11.16
2016-10-31T01:40:59.581Z,11.21
2016-10-31T01:41:59.671Z,11.2
2016-10-31T01:42:59.729Z,11.12
2016-10-31T01:43:59.686Z,11.12
2016-10-31T01:44:59.815Z,11.13
2016-10-31T01:45:59.599Z,11.06
2016-10-31T01:46:59.739Z,11.03
2016-10-31T01:47:59.694Z,11.24
2016-10-31T01:48:59.852Z,11.2
2016-10-31T01:49:59.561Z,11.09
2016-10-31T01:50:59.745Z,11.06
2016-10-31T01:51:59.706Z,11.12
2016-10-31T01:52:59.744Z,11.27
2016-10-31T01:53:59.749Z,11.24
2016-10-31T01:54:59.727Z,11.15
2016-10-31T01:55:59.775Z,11.12
2016-10-31T01:56:59.865Z,11.21
2016-10-31T01:57:59.856Z,11.3
2016-10-31T01:58:59.741Z,11.23
2016-10-31T01:59:59.860Z,11.18
2016-10-31T02:00:59.864Z,11.2
2016-10-31T02:01:59.764Z,11.28
2016-10-31T02:02:59.788Z,11.23
2016-10-31T02:03:59.778Z,11.15
2016-10-31T02:04:59.701Z,11.12
2016-10-31T02:05:59.788Z,11.23
2016-10-31T02:06:59.601Z,11.1
2016-10-31T02:07:59.808Z,11.21
2016-10-31T02:08:59.766Z,11.15
2016-10-31T02:10:00.020Z,11.13
2016-10-31T02:10:59.805Z,11.15
2016-10-31T02:11:59.766Z,11.16
2016-10-31T02:12:59.781Z,11.26
2016-10-31T02:13:59.795Z,11.2
2016-10-31T02:14:59.818Z,11.18
2016-10-31T02:15:59.782Z,11.18
2016-10-31T02:16:59.663Z,11.2
2016-10-31T02:17:59.670Z,11.16
2016-10-31T02:18:59.919Z,11.24
2016-10-31T02:19:59.904Z,11.2
2016-10-31T02:20:59.764Z,11.16
2016-10-31T02:21:59.718Z,11.15
2016-10-31T02:22:59.924Z,11.15
2016-10-31T02:23:59.775Z,11.16
2016-10-31T02:24:59.831Z,11.02
2016-10-31T02:25:59.793Z,11.15
2016-10-31T02:26:59.803Z,11.24
2016-10-31T02:27:59.691Z,11.21
2016-10-31T02:28:59.734Z,11.1
2016-10-31T02:29:59.697Z,11.18
2016-10-31T02:30:59.951Z,11.16
2016-10-31T02:31:59.960Z,11.12
2016-10-31T02:32:59.965Z,11.16
2016-10-31T02:33:59.973Z,11.12
2016-10-31T02:34:59.727Z,11.09
2016-10-31T02:35:59.996Z,11.21
2016-10-31T02:36:59.777Z,11.1
2016-10-31T02:37:59.738Z,11.21
2016-10-31T02:38:59.988Z,11.09
2016-10-31T02:39:59.980Z,11.15
2016-10-31T02:40:59.702Z,11.12
2016-10-31T02:42:00.032Z,11.12
2016-10-31T02:42:59.893Z,11.16
2016-10-31T02:43:59.886Z,11.09
2016-10-31T02:44:59.869Z,11.09
2016-10-31T02:45:59.749Z,11.08
2016-10-31T02:46:59.850Z,10.95
2016-10-31T02:48:00.024Z,10.94
2016-10-31T02:48:59.911Z,11.02
2016-10-31T02:49:59.881Z,10.92
2016-10-31T02:51:00.033Z,10.91
2016-10-31T02:52:00.007Z,10.95
2016-10-31T02:52:59.921Z,10.88
2016-10-31T02:53:59.906Z,10.85
2016-10-31T02:54:59.920Z,10.9
2016-10-31T02:55:59.763Z,10.79
2016-10-31T02:56:59.884Z,10.75
2016-10-31T02:58:00.202Z,10.76
2016-10-31T02:58:59.933Z,10.77
2016-10-31T02:59:59.890Z,10.73
2016-10-31T03:00:59.886Z,10.77
2016-10-31T03:01:59.908Z,10.75
2016-10-31T03:02:59.960Z,10.65
2016-10-31T03:03:59.842Z,10.63
2016-10-31T03:04:59.950Z,10.63
2016-10-31T03:05:59.771Z,10.67
2016-10-31T03:06:59.922Z,10.69
2016-10-31T03:07:59.947Z,10.61
2016-10-31T03:08:59.983Z,10.61
2016-10-31T03:09:59.970Z,10.65
2016-10-31T03:10:59.977Z,10.59
2016-10-31T03:11:59.966Z,10.7
2016-10-31T03:12:59.833Z,10.7
2016-10-31T03:14:00.074Z,10.73
2016-10-31T03:14:59.938Z,10.66
2016-10-31T03:15:59.835Z,10.66
2016-10-31T03:16:59.855Z,10.63
2016-10-31T03:18:00.098Z,10.63
2016-10-31T03:18:59.958Z,10.59
2016-10-31T03:20:00.098Z,10.66
2016-10-31T03:21:00.001Z,10.58
2016-10-31T03:21:59.952Z,10.58
2016-10-31T03:23:00.112Z,10.47
2016-10-31T03:24:00.114Z,10.59
2016-10-31T03:25:00.148Z,10.57
2016-10-31T03:26:00.000Z,10.51
2016-10-31T03:26:59.884Z,10.49
2016-10-31T03:28:00.025Z,10.49
2016-10-31T03:28:59.877Z,10.42
2016-10-31T03:30:00.022Z,10.52
2016-10-31T03:31:00.134Z,10.46
2016-10-31T03:32:00.124Z,10.42
2016-10-31T03:33:00.128Z,10.46
2016-10-31T03:34:00.035Z,10.52
2016-10-31T03:35:00.130Z,10.51
2016-10-31T03:35:59.903Z,10.47
2016-10-31T03:37:00.047Z,10.38
2016-10-31T03:38:00.165Z,10.47
2016-10-31T03:38:59.909Z,10.41
2016-10-31T03:40:00.046Z,10.52
2016-10-31T03:41:00.083Z,10.39
2016-10-31T03:42:00.019Z,10.33
2016-10-31T03:43:00.175Z,10.41
2016-10-31T03:44:00.025Z,10.35
2016-10-31T03:45:00.179Z,10.33
2016-10-31T03:46:00.320Z,10.32
2016-10-31T03:47:00.179Z,10.28
2016-10-31T03:48:00.177Z,10.29
2016-10-31T03:49:00.040Z,10.23
2016-10-31T03:50:00.042Z,10.18
2016-10-31T03:51:00.075Z,10.23
2016-10-31T03:52:00.039Z,10.31
2016-10-31T03:53:00.186Z,10.23
2016-10-31T03:53:59.919Z,10.25
2016-10-31T03:55:00.099Z,10.2
2016-10-31T03:56:00.200Z,10.18
2016-10-31T03:57:00.103Z,10.23
2016-10-31T03:58:00.208Z,10.23
2016-10-31T03:59:00.083Z,10.18
2016-10-31T04:00:00.176Z,10.21
2016-10-31T04:01:00.221Z,10.21
2016-10-31T04:02:00.108Z,10.14
2016-10-31T04:03:00.127Z,10.1
2016-10-31T04:04:00.129Z,10.11
2016-10-31T04:05:00.123Z,10.11
2016-10-31T04:06:00.087Z,10.08
2016-10-31T04:07:00.074Z,10.11
2016-10-31T04:08:00.114Z,10.07
2016-10-31T04:09:00.082Z,10.11
2016-10-31T04:10:00.107Z,10.02
2016-10-31T04:11:00.147Z,10.08
2016-10-31T04:12:00.096Z,9.96
2016-10-31T04:13:00.270Z,10.07
2016-10-31T04:14:00.139Z,10.02
2016-10-31T04:15:00.120Z,10.05
2016-10-31T04:16:00.258Z,10.02
2016-10-31T04:17:00.122Z,9.96
2016-10-31T04:18:00.147Z,9.89
2016-10-31T04:19:00.133Z,9.88
2016-10-31T04:20:00.185Z,9.82
2016-10-31T04:21:00.164Z,9.85
2016-10-31T04:22:00.178Z,9.77
2016-10-31T04:23:00.159Z,9.67
2016-10-31T04:24:00.289Z,9.77
2016-10-31T04:25:00.043Z,9.63
2016-10-31T04:26:00.155Z,9.63
2016-10-31T04:27:00.287Z,9.64
2016-10-31T04:28:00.014Z,9.57
2016-10-31T04:29:00.170Z,9.6
2016-10-31T04:30:00.189Z,9.57
2016-10-31T04:31:00.164Z,9.55
2016-10-31T04:32:00.105Z,9.59
2016-10-31T04:33:00.181Z,9.48
2016-10-31T04:34:00.466Z,9.59
2016-10-31T04:35:00.187Z,9.47
2016-10-31T04:36:00.065Z,9.59
2016-10-31T04:37:00.195Z,9.5
2016-10-31T04:38:00.209Z,9.55
2016-10-31T04:39:00.114Z,9.45
2016-10-31T04:40:00.230Z,9.45
2016-10-31T04:41:00.124Z,9.55
2016-10-31T04:42:00.223Z,9.6
2016-10-31T04:43:00.186Z,9.5
2016-10-31T04:44:00.042Z,9.47
2016-10-31T04:45:00.223Z,9.59
2016-10-31T04:46:00.237Z,9.52
2016-10-31T04:47:00.201Z,9.6
2016-10-31T04:48:00.251Z,9.52
2016-10-31T04:49:00.084Z,9.6
2016-10-31T04:50:00.421Z,9.56
2016-10-31T04:51:00.212Z,9.62
2016-10-31T04:52:00.266Z,9.62
2016-10-31T04:53:00.354Z,9.74
2016-10-31T04:54:00.378Z,9.67
2016-10-31T04:55:00.376Z,9.64
2016-10-31T04:56:00.227Z,9.66
2016-10-31T04:57:00.365Z,9.67
2016-10-31T04:58:00.361Z,9.81
2016-10-31T04:59:00.245Z,9.72
2016-10-31T05:00:00.247Z,9.77
2016-10-31T05:01:00.141Z,9.8
2016-10-31T05:02:00.353Z,9.81
2016-10-31T05:03:00.248Z,9.82
2016-10-31T05:04:00.139Z,9.82
2016-10-31T05:05:00.103Z,9.82
2016-10-31T05:06:00.279Z,9.84
2016-10-31T05:07:00.401Z,9.78
2016-10-31T05:08:00.396Z,9.78
2016-10-31T05:09:00.407Z,9.84
2016-10-31T05:10:00.332Z,9.75
2016-10-31T05:11:00.270Z,9.8
2016-10-31T05:12:00.310Z,9.78
2016-10-31T05:13:00.169Z,9.82
2016-10-31T05:14:00.415Z,9.77
2016-10-31T05:15:00.412Z,9.82
2016-10-31T05:16:00.192Z,9.89
2016-10-31T05:17:00.322Z,9.93
2016-10-31T05:18:00.329Z,9.95
2016-10-31T05:19:00.478Z,10
2016-10-31T05:20:00.344Z,9.99
2016-10-31T05:21:00.470Z,10
2016-10-31T05:22:00.562Z,9.99
2016-10-31T05:23:00.315Z,10.02
2016-10-31T05:24:00.453Z,10.02
2016-10-31T05:25:00.461Z,10.03
2016-10-31T05:26:00.353Z,10.14
2016-10-31T05:27:00.241Z,10.14
2016-10-31T05:28:00.323Z,10.1
2016-10-31T05:29:00.334Z,10.14
2016-10-31T05:30:00.471Z,10.18
2016-10-31T05:31:00.231Z,10.11
2016-10-31T05:32:00.326Z,10.1
2016-10-31T05:33:00.395Z,10.2
2016-10-31T05:34:00.374Z,10.1
2016-10-31T05:35:00.477Z,10.1
2016-10-31T05:36:00.242Z,10.11
2016-10-31T05:37:00.347Z,10.1
2016-10-31T05:38:00.644Z,10.08
2016-10-31T05:39:00.484Z,10.15
2016-10-31T05:40:00.397Z,10.15
2016-10-31T05:41:00.505Z,10.18
2016-10-31T05:42:00.398Z,10.15
2016-10-31T05:43:00.383Z,10.13
2016-10-31T05:44:00.488Z,10.23
2016-10-31T05:45:00.279Z,10.18
2016-10-31T05:46:00.295Z,10.21
2016-10-31T05:47:00.372Z,10.23
2016-10-31T05:48:00.508Z,10.26
2016-10-31T05:49:00.533Z,10.2
2016-10-31T05:50:00.520Z,10.2
2016-10-31T05:51:00.433Z,10.26
2016-10-31T05:52:00.543Z,10.29
2016-10-31T05:53:00.544Z,10.31
2016-10-31T05:54:00.614Z,10.25
2016-10-31T05:55:00.433Z,10.31
2016-10-31T05:56:00.401Z,10.2
2016-10-31T05:57:00.316Z,10.29
2016-10-31T05:58:00.420Z,10.32
2016-10-31T05:59:00.305Z,10.26
2016-10-31T06:00:00.414Z,10.35
2016-10-31T06:01:00.278Z,10.35
2016-10-31T06:02:00.456Z,10.39
2016-10-31T06:03:00.559Z,10.31
2016-10-31T06:04:00.276Z,10.29
2016-10-31T06:05:00.471Z,10.29
2016-10-31T06:06:00.457Z,10.32
2016-10-31T06:07:00.417Z,10.25
2016-10-31T06:08:00.480Z,10.26
2016-10-31T06:09:00.569Z,10.26
2016-10-31T06:10:00.479Z,10.21
2016-10-31T06:11:00.590Z,10.21
2016-10-31T06:12:00.329Z,10.21
2016-10-31T06:13:00.349Z,10.17
2016-10-31T06:14:00.484Z,10.18
2016-10-31T06:15:00.609Z,10.18
2016-10-31T06:16:00.487Z,10.14
2016-10-31T06:17:00.461Z,10.11
2016-10-31T06:18:00.498Z,10.1
2016-10-31T06:19:00.365Z,10.14
2016-10-31T06:20:00.492Z,10.17
2016-10-31T06:21:00.549Z,10.18
2016-10-31T06:22:00.641Z,10.2
2016-10-31T06:23:00.636Z,10.2
2016-10-31T06:24:00.617Z,10.23
2016-10-31T06:25:00.337Z,10.2
2016-10-31T06:26:00.690Z,10.18
2016-10-31T06:27:00.518Z,10.17
2016-10-31T06:28:00.633Z,10.17
2016-10-31T06:29:00.653Z,10.17
2016-10-31T06:30:00.353Z,10.13
2016-10-31T06:31:00.485Z,10.25
2016-10-31T06:32:00.493Z,10.18
2016-10-31T06:33:00.574Z,10.13
2016-10-31T06:34:00.626Z,10.07
2016-10-31T06:35:00.667Z,10.18
2016-10-31T06:36:00.652Z,10.23
2016-10-31T06:37:00.603Z,10.29
2016-10-31T06:38:00.466Z,10.26
2016-10-31T06:39:00.513Z,10.23
2016-10-31T06:40:00.417Z,10.23
2016-10-31T06:41:00.529Z,10.26
2016-10-31T06:42:00.958Z,10.21
2016-10-31T06:43:00.444Z,10.28
2016-10-31T06:44:00.556Z,10.35
2016-10-31T06:45:00.561Z,10.31
2016-10-31T06:46:00.585Z,10.38
2016-10-31T06:47:00.588Z,10.31
2016-10-31T06:48:00.473Z,10.36
2016-10-31T06:49:00.591Z,10.36
2016-10-31T06:50:00.597Z,10.47
2016-10-31T06:51:00.592Z,10.35
2016-10-31T06:52:00.461Z,10.38
2016-10-31T06:53:00.508Z,10.41
2016-10-31T06:54:00.628Z,10.46
2016-10-31T06:55:00.427Z,10.44
2016-10-31T06:56:00.452Z,10.47
2016-10-31T06:57:00.715Z,10.49
2016-10-31T06:58:00.766Z,10.46
2016-10-31T06:59:00.565Z,10.38
2016-10-31T07:00:00.598Z,10.47
2016-10-31T07:01:00.490Z,10.54
2016-10-31T07:02:00.578Z,10.52
2016-10-31T07:03:00.589Z,10.54
2016-10-31T07:04:00.487Z,10.61
2016-10-31T07:05:00.768Z,10.59
2016-10-31T07:06:00.731Z,10.59
2016-10-31T07:07:00.657Z,10.59
2016-10-31T07:08:00.603Z,10.65
2016-10-31T07:09:00.752Z,10.65
2016-10-31T07:10:00.758Z,10.7
2016-10-31T07:11:00.785Z,10.7
2016-10-31T07:12:00.611Z,10.72
2016-10-31T07:13:00.648Z,10.77
2016-10-31T07:14:00.654Z,10.79
2016-10-31T07:15:00.669Z,10.7
2016-10-31T07:16:00.799Z,11
2016-10-31T07:17:00.636Z,10.76
2016-10-31T07:18:00.567Z,10.77
2016-10-31T07:19:00.623Z,10.79
2016-10-31T07:20:00.762Z,10.77
2016-10-31T07:21:00.682Z,10.85
2016-10-31T07:22:00.651Z,10.84
2016-10-31T07:23:00.786Z,11.02
2016-10-31T07:24:00.682Z,10.97
2016-10-31T07:25:00.694Z,11.1
2016-10-31T07:26:00.561Z,11.03
2016-10-31T07:27:00.501Z,11.15
2016-10-31T07:28:00.538Z,11.13
2016-10-31T07:29:00.704Z,11.24
2016-10-31T07:30:00.667Z,11.26
2016-10-31T07:31:00.536Z,11.23
2016-10-31T07:32:00.664Z,11.16
2016-10-31T07:33:00.678Z,11.18
2016-10-31T07:34:00.816Z,11.21
2016-10-31T07:35:00.817Z,11.2
2016-10-31T07:36:00.757Z,11.28
2016-10-31T07:37:00.684Z,11.23
2016-10-31T07:38:00.821Z,11.24
2016-10-31T07:39:00.713Z,11.24
2016-10-31T07:40:00.734Z,11.23
2016-10-31T07:41:00.842Z,11.23
2016-10-31T07:42:00.727Z,11.24
2016-10-31T07:43:00.768Z,11.23
2016-10-31T07:44:00.686Z,11.3
2016-10-31T07:45:00.851Z,11.41
2016-10-31T07:46:00.953Z,11.38
2016-10-31T07:47:00.633Z,11.3
2016-10-31T07:48:00.750Z,11.38
2016-10-31T07:49:00.663Z,11.52
2016-10-31T07:50:01.116Z,11.56
2016-10-31T07:51:00.827Z,11.57
2016-10-31T07:52:00.752Z,11.52
2016-10-31T07:53:00.589Z,11.64
2016-10-31T07:54:00.663Z,11.63
2016-10-31T07:55:00.730Z,11.63
2016-10-31T07:56:00.833Z,11.53
2016-10-31T07:57:00.924Z,11.53
2016-10-31T07:58:00.739Z,11.68
2016-10-31T07:59:00.739Z,11.68
2016-10-31T08:00:00.747Z,11.76
2016-10-31T08:01:00.633Z,11.64
2016-10-31T08:02:00.827Z,11.63
2016-10-31T08:03:00.608Z,11.61
2016-10-31T08:04:00.782Z,11.61
2016-10-31T08:05:00.648Z,11.56
2016-10-31T08:06:00.784Z,11.61
2016-10-31T08:07:00.751Z,11.6
2016-10-31T08:08:00.807Z,11.59
2016-10-31T08:09:00.681Z,11.61
2016-10-31T08:10:00.693Z,11.66
2016-10-31T08:11:00.952Z,11.61
2016-10-31T08:12:00.781Z,11.61
2016-10-31T08:13:00.846Z,11.48
2016-10-31T08:14:00.961Z,11.6
2016-10-31T08:15:00.820Z,11.53
2016-10-31T08:16:00.826Z,11.66
2016-10-31T08:17:00.943Z,11.7
2016-10-31T08:18:00.897Z,11.63
2016-10-31T08:19:00.831Z,11.68
2016-10-31T08:20:00.799Z,11.66
2016-10-31T08:21:00.665Z,11.66
2016-10-31T08:22:00.939Z,11.59
2016-10-31T08:23:01.340Z,11.68
2016-10-31T08:24:00.703Z,11.64
2016-10-31T08:25:00.770Z,11.61
2016-10-31T08:26:00.721Z,11.63
2016-10-31T08:27:00.858Z,11.57
2016-10-31T08:28:00.863Z,11.73
2016-10-31T08:29:01.008Z,11.63
2016-10-31T08:30:00.969Z,11.66
2016-10-31T08:31:00.694Z,11.64
2016-10-31T08:32:01.090Z,11.67
2016-10-31T08:33:00.741Z,11.79
2016-10-31T08:34:01.036Z,11.85
2016-10-31T08:35:00.925Z,11.86
2016-10-31T08:36:00.717Z,11.71
2016-10-31T08:37:00.878Z,11.75
2016-10-31T08:38:00.887Z,11.97
2016-10-31T08:39:01.081Z,12.16
2016-10-31T08:40:00.777Z,12.01
2016-10-31T08:41:00.796Z,12.07
2016-10-31T08:42:00.718Z,12.19
2016-10-31T08:43:00.765Z,12.03
2016-10-31T08:44:00.761Z,12.19
2016-10-31T08:45:01.215Z,12.19
2016-10-31T08:46:00.901Z,12.16
2016-10-31T08:47:00.866Z,12.18
2016-10-31T08:48:00.792Z,12.26
2016-10-31T08:49:00.925Z,12.28
2016-10-31T08:50:01.010Z,12.25
2016-10-31T08:51:01.025Z,12.28
2016-10-31T08:52:01.020Z,12.15
2016-10-31T08:53:00.910Z,12.11
2016-10-31T08:54:00.920Z,12.26
2016-10-31T08:55:00.939Z,12.28
2016-10-31T08:56:00.994Z,12.25
2016-10-31T08:57:00.895Z,12.36
2016-10-31T08:58:00.856Z,12.41
2016-10-31T08:59:00.922Z,12.38
2016-10-31T09:00:00.974Z,12.41
2016-10-31T09:01:01.203Z,12.44
2016-10-31T09:02:01.001Z,12.36
2016-10-31T09:03:01.156Z,12.4
2016-10-31T09:04:00.987Z,12.37
2016-10-31T09:05:01.102Z,12.19
2016-10-31T09:06:01.313Z,12.22
2016-10-31T09:07:01.372Z,12.26
2016-10-31T09:08:01.097Z,12.16
2016-10-31T09:09:00.982Z,12.26
2016-10-31T09:10:01.157Z,12.31
2016-10-31T09:11:00.983Z,12.31
2016-10-31T09:12:01.151Z,12.26
2016-10-31T09:13:01.101Z,12.31
2016-10-31T09:14:01.152Z,12.28
2016-10-31T09:15:00.989Z,12.37
2016-10-31T09:16:01.097Z,12.43
2016-10-31T09:17:01.027Z,12.59
2016-10-31T09:18:01.143Z,12.66
2016-10-31T09:19:02.398Z,12.86
2016-10-31T09:20:00.870Z,13.02
2016-10-31T09:21:00.970Z,13.31
2016-10-31T09:22:01.121Z,13.45
2016-10-31T09:23:07.333Z,13.63
2016-10-31T09:24:01.067Z,13.75
2016-10-31T09:25:01.064Z,14.01
2016-10-31T09:26:00.932Z,14.16
2016-10-31T09:27:01.029Z,14.53
2016-10-31T09:28:01.197Z,14.6
2016-10-31T09:29:00.993Z,14.71
2016-10-31T09:30:00.891Z,14.77
2016-10-31T09:31:00.901Z,15.22
2016-10-31T09:32:01.240Z,15.56
2016-10-31T09:33:01.092Z,15.73
2016-10-31T09:34:01.072Z,15.8
2016-10-31T09:35:01.150Z,16.11
2016-10-31T09:36:01.194Z,16.08
2016-10-31T09:37:00.894Z,16.04
2016-10-31T09:38:01.052Z,15.8
2016-10-31T09:39:01.054Z,15.71
2016-10-31T09:40:01.202Z,15.84
2016-10-31T09:41:00.952Z,15.75
2016-10-31T09:42:01.052Z,15.56
2016-10-31T09:43:00.952Z,15.68
2016-10-31T09:44:00.947Z,15.74
2016-10-31T09:45:01.176Z,15.65
2016-10-31T09:46:00.993Z,15.51
2016-10-31T09:47:01.213Z,15.58
2016-10-31T09:48:01.239Z,15.91
2016-10-31T09:49:01.156Z,16.14
2016-10-31T09:50:01.068Z,16.1
2016-10-31T09:51:01.123Z,16.25
2016-10-31T09:52:01.100Z,16.22
2016-10-31T09:53:01.235Z,16.11
2016-10-31T09:54:01.185Z,15.99
2016-10-31T09:55:01.079Z,16.11
2016-10-31T09:56:01.103Z,16.32
2016-10-31T09:57:01.144Z,16.3
2016-10-31T09:58:01.230Z,16.39
2016-10-31T09:59:01.086Z,16.51
2016-10-31T10:00:01.114Z,16.62
2016-10-31T10:01:01.075Z,16.91
2016-10-31T10:02:01.268Z,16.87
2016-10-31T10:03:01.048Z,16.51
2016-10-31T10:04:01.234Z,16.47
2016-10-31T10:05:01.226Z,16.48
2016-10-31T10:06:01.171Z,16.72
2016-10-31T10:07:01.045Z,16.72
2016-10-31T10:08:01.176Z,16.85
2016-10-31T10:09:01.264Z,17.05
2016-10-31T10:10:01.617Z,17.49
2016-10-31T10:11:00.985Z,17.18
2016-10-31T10:12:01.164Z,17.02
2016-10-31T10:13:01.302Z,16.55
2016-10-31T10:14:01.265Z,16.73
2016-10-31T10:15:01.256Z,16.95
2016-10-31T10:16:01.191Z,16.76
2016-10-31T10:17:01.280Z,17.02
2016-10-31T10:18:01.938Z,16.99
2016-10-31T10:19:01.731Z,16.72
2016-10-31T10:20:01.419Z,16.97
2016-10-31T10:21:01.214Z,17.24
2016-10-31T10:22:01.403Z,17.09
2016-10-31T10:23:01.345Z,17.13
2016-10-31T10:24:01.099Z,17.09
2016-10-31T10:25:01.276Z,16.97
2016-10-31T10:26:01.425Z,17.02
2016-10-31T10:27:01.894Z,17.02
2016-10-31T10:28:01.337Z,16.94
2016-10-31T10:29:01.381Z,16.87
2016-10-31T10:30:01.323Z,16.84
2016-10-31T10:31:01.237Z,16.82
2016-10-31T10:32:01.259Z,16.88
2016-10-31T10:33:01.336Z,16.97
2016-10-31T10:34:01.262Z,17.07
2016-10-31T10:35:01.400Z,17.28
2016-10-31T10:36:01.180Z,17.18
2016-10-31T10:37:01.387Z,17.15
2016-10-31T10:38:01.284Z,17.2
2016-10-31T10:39:02.357Z,17.32
2016-10-31T10:40:01.281Z,17.4
2016-10-31T10:41:01.336Z,17.24
2016-10-31T10:42:01.494Z,17.43
2016-10-31T10:43:01.298Z,17.54
2016-10-31T10:44:02.029Z,17.62
2016-10-31T10:45:01.076Z,17.95
2016-10-31T10:46:01.419Z,18.11
2016-10-31T10:47:01.274Z,17.99
2016-10-31T10:48:01.469Z,17.71
2016-10-31T10:49:01.339Z,17.4
2016-10-31T10:50:01.373Z,17.17
2016-10-31T10:51:01.253Z,17.06
2016-10-31T10:52:01.135Z,17.09
2016-10-31T10:53:01.481Z,17.62
2016-10-31T10:54:01.320Z,17.99
2016-10-31T10:55:01.262Z,18.01
2016-10-31T10:56:01.435Z,17.88
2016-10-31T10:57:01.261Z,17.86
2016-10-31T10:58:01.733Z,17.76
2016-10-31T10:59:01.271Z,17.76
2016-10-31T11:00:01.400Z,17.68
2016-10-31T11:01:01.395Z,17.55
2016-10-31T11:02:02.010Z,17.58
2016-10-31T11:03:01.331Z,17.74
2016-10-31T11:04:01.486Z,17.76
2016-10-31T11:05:01.257Z,17.71
2016-10-31T11:06:01.306Z,17.39
2016-10-31T11:07:01.888Z,17.22
2016-10-31T11:08:01.352Z,17.02
2016-10-31T11:09:02.639Z,16.9
2016-10-31T11:10:01.477Z,16.87
2016-10-31T11:11:01.324Z,17.07
2016-10-31T11:12:01.417Z,16.95
2016-10-31T11:13:01.200Z,16.94
2016-10-31T11:14:01.481Z,17.17
2016-10-31T11:15:01.334Z,17.4
2016-10-31T11:16:01.238Z,17.36
2016-10-31T11:17:01.198Z,17.2
2016-10-31T11:18:01.269Z,17.35
2016-10-31T11:19:01.321Z,17.76
2016-10-31T11:20:01.385Z,17.84
2016-10-31T11:21:01.356Z,17.77
2016-10-31T11:22:01.483Z,17.88
2016-10-31T11:23:01.411Z,18.29
2016-10-31T11:24:01.406Z,17.77
2016-10-31T11:25:01.306Z,17.57
2016-10-31T11:26:01.353Z,17.92
2016-10-31T11:27:01.483Z,18.26
2016-10-31T11:28:01.371Z,18.45
2016-10-31T11:29:01.376Z,18.42
2016-10-31T11:30:01.356Z,18.38
2016-10-31T11:31:01.397Z,18.45
2016-10-31T11:32:01.282Z,18.27
2016-10-31T11:33:01.496Z,18.32
2016-10-31T11:34:01.249Z,18.44
2016-10-31T11:35:01.907Z,18.44
2016-10-31T11:36:01.384Z,18.29
2016-10-31T11:37:01.477Z,18.05
2016-10-31T11:38:01.442Z,17.95
2016-10-31T11:39:01.559Z,18.21
2016-10-31T11:40:01.448Z,18.26
2016-10-31T11:41:01.322Z,18.27
2016-10-31T11:42:01.513Z,18.54
2016-10-31T11:43:01.476Z,18.47
2016-10-31T11:44:01.389Z,17.99
2016-10-31T11:45:01.403Z,17.94
2016-10-31T11:46:01.437Z,17.8
2016-10-31T11:47:01.444Z,17.71
2016-10-31T11:48:01.341Z,17.54
2016-10-31T11:49:01.539Z,17.43
2016-10-31T11:50:01.544Z,17.25
2016-10-31T11:51:01.547Z,17.31
2016-10-31T11:52:01.431Z,17.55
2016-10-31T11:53:01.428Z,17.83
2016-10-31T11:54:01.318Z,17.69
2016-10-31T11:55:01.468Z,17.58
2016-10-31T11:56:01.357Z,17.73
2016-10-31T11:57:01.497Z,17.18
2016-10-31T11:58:01.620Z,17.21
2016-10-31T11:59:01.589Z,17.12
2016-10-31T12:00:01.502Z,17.07
2016-10-31T12:01:01.583Z,16.99
2016-10-31T12:02:01.592Z,16.77
2016-10-31T12:03:01.634Z,16.67
2016-10-31T12:04:01.494Z,16.94
2016-10-31T12:05:01.658Z,17.09
2016-10-31T12:06:01.372Z,17.6
2016-10-31T12:07:01.536Z,17.69
2016-10-31T12:08:01.481Z,17.57
2016-10-31T12:09:01.504Z,17.27
2016-10-31T12:10:01.467Z,17.1
2016-10-31T12:11:01.523Z,17.09
2016-10-31T12:12:01.366Z,17.1
2016-10-31T12:13:01.347Z,17.13
2016-10-31T12:14:01.560Z,17.22
2016-10-31T12:15:01.664Z,17.24
2016-10-31T12:16:01.603Z,17.36
2016-10-31T12:17:01.488Z,17.31
2016-10-31T12:18:01.774Z,17.3
2016-10-31T12:19:01.520Z,17.24
2016-10-31T12:20:01.636Z,17.17
2016-10-31T12:21:01.408Z,17.06
2016-10-31T12:22:01.591Z,17.22
2016-10-31T12:23:01.538Z,17.36
2016-10-31T12:24:01.553Z,17.5
2016-10-31T12:25:01.523Z,17.8
2016-10-31T12:26:01.667Z,17.95
2016-10-31T12:27:01.414Z,17.98
2016-10-31T12:28:01.639Z,17.81
2016-10-31T12:29:01.714Z,17.79
2016-10-31T12:30:01.553Z,17.8
2016-10-31T12:31:01.492Z,17.99
2016-10-31T12:32:01.839Z,18.2
2016-10-31T12:33:01.782Z,18.31
2016-10-31T12:34:01.857Z,18.26
2016-10-31T12:35:02.050Z,18.29
2016-10-31T12:36:01.624Z,18.21
2016-10-31T12:37:01.563Z,18.41
2016-10-31T12:38:01.574Z,18.41
2016-10-31T12:39:02.118Z,18.27
2016-10-31T12:40:01.594Z,18.56
2016-10-31T12:41:01.644Z,18.42
2016-10-31T12:42:01.750Z,18.27
2016-10-31T12:43:01.499Z,18.72
2016-10-31T12:44:01.635Z,19.09
2016-10-31T12:45:01.784Z,19.61
2016-10-31T12:46:01.637Z,19.92
2016-10-31T12:47:01.731Z,19.87
2016-10-31T12:48:01.500Z,19.67
2016-10-31T12:49:01.615Z,19.64
2016-10-31T12:50:01.598Z,19.61
2016-10-31T12:51:01.513Z,19.45
2016-10-31T12:52:01.648Z,19.19
2016-10-31T12:53:01.615Z,18.99
2016-10-31T12:54:01.673Z,19.23
2016-10-31T12:55:03.126Z,19.19
2016-10-31T12:56:01.787Z,19.06
2016-10-31T12:57:01.675Z,18.96
2016-10-31T12:58:01.612Z,18.71